Time;durP1;ratioP1;P1;durP2;ratioP2;P2;SDS_P1;SDS_P2;PMS_P1;PMS_P2;Temp;Humidity;BMP_temperature;BMP_pressure;BME280_temperature;BME280_humidity;BME280_pressure;Samples;Min_cycle;Max_cycle;Signal;HPM_P1;HPM_P2
2023/07/29 00:04:31;;;;;;;9.03;3.30;;;;;;;;;;10195317;29;20091;-75
2023/07/29 00:09:32;;;;;;;5.68;3.17;;;;;;;;;;10208743;28;20728;-77
2023/07/29 00:14:32;;;;;;;7.30;2.90;;;;;;;;;;10189270;29;20114;-77
2023/07/29 00:19:33;;;;;;;5.45;2.80;;;;;;;;;;10186172;29;20031;-75
2023/07/29 00:24:33;;;;;;;3.35;2.35;;;;;;;;;;10181898;29;20036;-79
2023/07/29 00:29:34;;;;;;;4.17;2.80;;;;;;;;;;10215761;29;20027;-80
2023/07/29 00:34:34;;;;;;;3.58;2.47;;;;;;;;;;10202191;29;20032;-80
2023/07/29 00:39:34;;;;;;;7.78;3.00;;;;;;;;;;10187636;29;20111;-78
2023/07/29 00:44:35;;;;;;;6.20;3.08;;;;;;;;;;10177109;29;20024;-74
2023/07/29 00:49:35;;;;;;;3.73;2.90;;;;;;;;;;10197963;28;20047;-74
2023/07/29 00:54:36;;;;;;;11.27;2.85;;;;;;;;;;10177600;29;20354;-74
2023/07/29 00:59:37;;;;;;;4.43;3.10;;;;;;;;;;10177102;29;20440;-79
2023/07/29 01:04:37;;;;;;;4.80;2.75;;;;;;;;;;10192917;29;20484;-78
2023/07/29 01:09:44;;;;;;;3.90;2.92;;;;;;;;;;10187554;29;20068;-74
2023/07/29 01:14:47;;;;;;;4.75;3.42;;;;;;;;;;10183788;29;20043;-75
2023/07/29 01:20:07;;;;;;;231.48;215.35;;;;;;;;;;10185876;29;20047;-75
2023/07/29 01:25:09;;;;;;;30.42;28.48;;;;;;;;;;10186233;29;20020;-77
2023/07/29 01:30:10;;;;;;;494.70;458.08;;;;;;;;;;10176706;29;20021;-75
2023/07/29 01:35:29;;;;;;;553.13;518.35;;;;;;;;;;10178085;29;20043;-81
2023/07/29 01:40:30;;;;;;;400.30;373.88;;;;;;;;;;10180920;29;20042;-78
2023/07/29 01:45:35;;;;;;;768.75;715.38;;;;;;;;;;10184422;29;20034;-78
2023/07/29 01:50:35;;;;;;;730.92;680.50;;;;;;;;;;10175322;29;20015;-76
2023/07/29 01:55:35;;;;;;;462.83;434.70;;;;;;;;;;10200494;29;20030;-77
2023/07/29 02:00:36;;;;;;;507.73;472.45;;;;;;;;;;10187984;29;20040;-76
2023/07/29 02:05:36;;;;;;;376.73;352.83;;;;;;;;;;10193986;29;20559;-73
2023/07/29 02:10:36;;;;;;;268.38;253.60;;;;;;;;;;10193496;29;20435;-78
2023/07/29 02:15:37;;;;;;;500.37;465.23;;;;;;;;;;10185271;29;20413;-77
2023/07/29 02:20:37;;;;;;;710.33;662.20;;;;;;;;;;10192488;29;20528;-80
2023/07/29 02:25:38;;;;;;;782.17;726.87;;;;;;;;;;10199787;29;20503;-80
2023/07/29 02:30:41;;;;;;;5.05;3.20;;;;;;;;;;10176677;29;20050;-78
2023/07/29 02:35:41;;;;;;;308.88;288.23;;;;;;;;;;10181241;29;20027;-77
2023/07/29 02:40:43;;;;;;;10.32;4.57;;;;;;;;;;10196987;28;20690;-79
2023/07/29 02:45:43;;;;;;;76.95;70.70;;;;;;;;;;10182069;29;20494;-80
2023/07/29 02:50:43;;;;;;;4.07;3.28;;;;;;;;;;10178029;29;20481;-78
2023/07/29 02:55:44;;;;;;;5.25;3.22;;;;;;;;;;10201176;28;20055;-74
2023/07/29 03:00:44;;;;;;;129.70;122.32;;;;;;;;;;10216091;28;20106;-80
2023/07/29 03:05:44;;;;;;;316.15;296.73;;;;;;;;;;10187121;29;20101;-78
2023/07/29 03:10:44;;;;;;;211.15;197.77;;;;;;;;;;10193590;29;20035;-77
2023/07/29 03:15:45;;;;;;;165.48;156.18;;;;;;;;;;10182223;29;20028;-74
2023/07/29 03:20:45;;;;;;;173.15;163.68;;;;;;;;;;10190787;29;20059;-82
2023/07/29 03:25:48;;;;;;;391.60;368.20;;;;;;;;;;10178439;29;20522;-81
2023/07/29 03:30:48;;;;;;;319.73;301.02;;;;;;;;;;10189479;29;20020;-75
2023/07/29 03:35:48;;;;;;;195.75;184.18;;;;;;;;;;10191105;29;20423;-83
2023/07/29 03:40:50;;;;;;;324.45;306.00;;;;;;;;;;10197428;29;20020;-81
2023/07/29 03:45:51;;;;;;;545.45;510.45;;;;;;;;;;10177993;29;20024;-82
2023/07/29 03:50:51;;;;;;;546.72;512.33;;;;;;;;;;10186294;29;20100;-78
2023/07/29 03:55:51;;;;;;;481.77;452.67;;;;;;;;;;10187108;29;20034;-81
2023/07/29 04:00:53;;;;;;;274.65;259.42;;;;;;;;;;10179444;29;20099;-77
2023/07/29 04:05:53;;;;;;;273.40;258.23;;;;;;;;;;10202603;29;20472;-81
2023/07/29 04:10:54;;;;;;;525.70;493.65;;;;;;;;;;10190517;29;20107;-78
2023/07/29 04:15:54;;;;;;;682.75;637.53;;;;;;;;;;10201402;28;20031;-75
2023/07/29 04:20:55;;;;;;;485.08;455.38;;;;;;;;;;10185797;29;20023;-77
2023/07/29 04:25:55;;;;;;;864.22;798.60;;;;;;;;;;10177250;29;20462;-78
2023/07/29 04:30:56;;;;;;;6.18;4.90;;;;;;;;;;10165555;29;20024;-79
2023/07/29 04:35:58;;;;;;;6.00;4.20;;;;;;;;;;10178442;29;20028;-80
2023/07/29 04:41:01;;;;;;;6.18;4.63;;;;;;;;;;10209794;28;20038;-80
2023/07/29 04:46:01;;;;;;;4.75;3.30;;;;;;;;;;10194636;29;20503;-76
2023/07/29 04:51:03;;;;;;;4.37;3.30;;;;;;;;;;10193126;29;20034;-81
2023/07/29 04:56:03;;;;;;;5.22;3.42;;;;;;;;;;10211390;29;20078;-77
2023/07/29 05:01:05;;;;;;;6.03;3.60;;;;;;;;;;10187942;29;20086;-76
2023/07/29 05:06:05;;;;;;;3.47;2.85;;;;;;;;;;10178256;29;20398;-77
2023/07/29 05:11:06;;;;;;;7.05;2.92;;;;;;;;;;10215473;29;20035;-74
2023/07/29 05:16:06;;;;;;;4.28;3.03;;;;;;;;;;10208011;28;20027;-76
2023/07/29 05:21:08;;;;;;;5.70;3.22;;;;;;;;;;10201947;29;20098;-82
2023/07/29 05:26:08;;;;;;;5.18;3.13;;;;;;;;;;10224372;28;20425;-78
2023/07/29 05:31:08;;;;;;;4.13;3.15;;;;;;;;;;10207165;28;20434;-78
2023/07/29 05:36:10;;;;;;;4.85;3.42;;;;;;;;;;10238534;28;20034;-75
2023/07/29 05:41:11;;;;;;;4.13;3.50;;;;;;;;;;10207177;28;20865;-81
2023/07/29 05:46:12;;;;;;;8.30;3.70;;;;;;;;;;10205494;28;20947;-75
2023/07/29 05:51:12;;;;;;;5.20;2.70;;;;;;;;;;10224219;28;20033;-77
2023/07/29 05:56:12;;;;;;;8.17;3.43;;;;;;;;;;10220644;29;20419;-79
2023/07/29 06:01:12;;;;;;;7.07;3.40;;;;;;;;;;10235345;28;20023;-75
2023/07/29 06:06:13;;;;;;;3.78;2.78;;;;;;;;;;10207307;28;20047;-80
2023/07/29 06:11:14;;;;;;;4.80;3.03;;;;;;;;;;10230292;28;20058;-76
2023/07/29 06:16:14;;;;;;;7.07;3.10;;;;;;;;;;10216830;29;20039;-79
2023/07/29 06:21:16;;;;;;;5.88;3.47;;;;;;;;;;10207611;29;20506;-77
2023/07/29 06:26:17;;;;;;;7.22;3.20;;;;;;;;;;10223336;28;20031;-78
2023/07/29 06:31:17;;;;;;;7.40;2.53;;;;;;;;;;10200787;28;20024;-76
2023/07/29 06:36:17;;;;;;;4.57;2.58;;;;;;;;;;10205311;28;20381;-77
2023/07/29 06:41:18;;;;;;;7.13;3.00;;;;;;;;;;10212852;29;20015;-77
2023/07/29 06:46:18;;;;;;;8.02;2.63;;;;;;;;;;10213767;28;20027;-74
2023/07/29 06:51:18;;;;;;;7.13;2.40;;;;;;;;;;10228913;28;20403;-74
2023/07/29 06:56:20;;;;;;;4.00;2.30;;;;;;;;;;10212842;28;20027;-78
2023/07/29 07:01:20;;;;;;;9.10;2.63;;;;;;;;;;10237169;28;20055;-77
2023/07/29 07:06:22;;;;;;;3.15;2.10;;;;;;;;;;10222812;28;20031;-82
2023/07/29 07:11:22;;;;;;;3.40;2.42;;;;;;;;;;10213390;29;20032;-75
2023/07/29 07:16:22;;;;;;;5.05;2.58;;;;;;;;;;10240478;29;20555;-78
2023/07/29 07:21:24;;;;;;;4.22;2.22;;;;;;;;;;10227450;28;20098;-79
2023/07/29 07:26:24;;;;;;;2.60;1.63;;;;;;;;;;10220339;29;20065;-79
2023/07/29 07:31:24;;;;;;;4.25;1.73;;;;;;;;;;10227844;28;20130;-73
2023/07/29 07:36:25;;;;;;;8.13;2.42;;;;;;;;;;10201667;29;20038;-79
2023/07/29 07:41:25;;;;;;;10.10;2.60;;;;;;;;;;10197280;29;20106;-77
2023/07/29 07:46:25;;;;;;;4.15;2.10;;;;;;;;;;10234312;28;20098;-77
2023/07/29 07:51:25;;;;;;;7.90;2.25;;;;;;;;;;10217644;29;20019;-78
2023/07/29 07:56:26;;;;;;;4.57;2.20;;;;;;;;;;10211820;28;20063;-76
2023/07/29 08:01:26;;;;;;;3.95;2.25;;;;;;;;;;10228386;28;20035;-77
2023/07/29 08:06:26;;;;;;;7.45;2.80;;;;;;;;;;10209227;29;20109;-74
2023/07/29 08:11:26;;;;;;;3.95;2.10;;;;;;;;;;10222193;28;20023;-74
2023/07/29 08:16:27;;;;;;;6.90;2.08;;;;;;;;;;10213304;29;20028;-74
2023/07/29 08:21:27;;;;;;;3.20;2.00;;;;;;;;;;10219125;29;20404;-74
2023/07/29 08:26:27;;;;;;;9.48;2.58;;;;;;;;;;10217124;29;20027;-79
2023/07/29 08:31:28;;;;;;;9.68;2.40;;;;;;;;;;10237456;28;20030;-78
2023/07/29 08:36:28;;;;;;;6.43;1.50;;;;;;;;;;10225942;28;20444;-79
2023/07/29 08:41:35;;;;;;;4.68;1.83;;;;;;;;;;10207818;29;20071;-77
2023/07/29 08:46:35;;;;;;;4.25;1.60;;;;;;;;;;10216979;29;20462;-74
2023/07/29 08:51:36;;;;;;;3.60;1.90;;;;;;;;;;10238041;29;20105;-77
2023/07/29 08:56:36;;;;;;;3.80;1.47;;;;;;;;;;10236618;28;20031;-82
2023/07/29 09:01:41;;;;;;;4.75;1.60;;;;;;;;;;10209374;29;20118;-81
2023/07/29 09:06:42;;;;;;;4.23;1.30;;;;;;;;;;10199749;29;20055;-82
2023/07/29 09:11:43;;;;;;;1.60;1.00;;;;;;;;;;10222078;28;20038;-74
2023/07/29 09:16:46;;;;;;;4.22;1.35;;;;;;;;;;10238642;28;20082;-77
2023/07/29 09:21:47;;;;;;;2.67;0.75;;;;;;;;;;10204949;28;20042;-77
2023/07/29 09:26:51;;;;;;;2.70;0.93;;;;;;;;;;10251993;28;20502;-79
2023/07/29 09:31:51;;;;;;;3.15;0.80;;;;;;;;;;10249193;28;20712;-78
2023/07/29 09:36:51;;;;;;;2.40;0.55;;;;;;;;;;10220676;28;20039;-73
2023/07/29 09:41:51;;;;;;;1.30;0.70;;;;;;;;;;10219514;28;20464;-75
2023/07/29 09:46:52;;;;;;;1.23;0.80;;;;;;;;;;10219583;28;20625;-72
2023/07/29 09:51:55;;;;;;;2.97;0.80;;;;;;;;;;10220400;29;20027;-74
2023/07/29 09:56:56;;;;;;;1.35;0.68;;;;;;;;;;10220000;29;20769;-78
2023/07/29 10:01:57;;;;;;;1.60;0.95;;;;;;;;;;10220520;29;20027;-74
2023/07/29 10:06:57;;;;;;;2.60;0.87;;;;;;;;;;10236511;28;20062;-74
2023/07/29 10:11:58;;;;;;;2.00;0.90;;;;;;;;;;10202929;28;20059;-80
2023/07/29 10:16:59;;;;;;;1.30;0.47;;;;;;;;;;10213369;29;20739;-79
2023/07/29 10:22:03;;;;;;;0.82;0.68;;;;;;;;;;10210568;28;20134;-78
2023/07/29 10:27:03;;;;;;;4.95;0.70;;;;;;;;;;10218074;29;20032;-76
2023/07/29 10:32:04;;;;;;;2.70;0.60;;;;;;;;;;10205814;29;20019;-77
2023/07/29 10:37:05;;;;;;;3.10;0.88;;;;;;;;;;10200948;29;20087;-74
2023/07/29 10:42:06;;;;;;;3.17;0.40;;;;;;;;;;10224772;29;20491;-80
2023/07/29 10:47:12;;;;;;;0.82;0.68;;;;;;;;;;10214446;28;20031;-75
2023/07/29 10:52:14;;;;;;;1.27;0.70;;;;;;;;;;10207082;29;20028;-78
2023/07/29 10:57:15;;;;;;;0.55;0.43;;;;;;;;;;10223313;29;20027;-76
2023/07/29 11:02:17;;;;;;;2.80;0.55;;;;;;;;;;10209612;28;20122;-78
2023/07/29 11:07:22;;;;;;;2.42;0.60;;;;;;;;;;10211756;28;20140;-79
2023/07/29 11:12:45;;;;;;;2.03;0.60;;;;;;;;;;10193657;29;20019;-77
2023/07/29 11:18:03;;;;;;;1.75;0.80;;;;;;;;;;10200522;28;20039;-72
2023/07/29 11:23:04;;;;;;;1.15;0.30;;;;;;;;;;10218788;29;20034;-74
2023/07/29 11:28:04;;;;;;;2.03;0.80;;;;;;;;;;10209006;28;20046;-80
2023/07/29 11:33:04;;;;;;;3.50;0.90;;;;;;;;;;10214787;28;20154;-77
2023/07/29 11:38:05;;;;;;;2.65;0.90;;;;;;;;;;10223675;29;20031;-79
2023/07/29 11:43:05;;;;;;;1.65;0.90;;;;;;;;;;10217743;28;20027;-77
2023/07/29 11:48:07;;;;;;;2.78;1.00;;;;;;;;;;10236513;28;20389;-79
2023/07/29 11:53:07;;;;;;;1.52;0.73;;;;;;;;;;10213646;29;20074;-79
2023/07/29 11:58:08;;;;;;;1.60;0.90;;;;;;;;;;10237605;28;20153;-78
2023/07/29 12:03:09;;;;;;;1.48;0.82;;;;;;;;;;10210035;29;20086;-79
2023/07/29 12:08:10;;;;;;;3.25;1.15;;;;;;;;;;10222403;29;20047;-77
2023/07/29 12:13:11;;;;;;;3.30;0.80;;;;;;;;;;10225190;28;20381;-80
2023/07/29 12:18:11;;;;;;;4.53;1.10;;;;;;;;;;10240654;28;20306;-78
2023/07/29 12:23:12;;;;;;;2.45;0.85;;;;;;;;;;10224301;28;20032;-73
2023/07/29 12:28:12;;;;;;;7.90;1.33;;;;;;;;;;10223054;28;20525;-80
2023/07/29 12:33:33;;;;;;;1.70;0.80;;;;;;;;;;10240798;28;20111;-77
2023/07/29 12:38:35;;;;;;;1.70;0.93;;;;;;;;;;10238807;28;20046;-79
2023/07/29 12:43:36;;;;;;;1.85;1.15;;;;;;;;;;10246478;28;20030;-79
2023/07/29 12:48:36;;;;;;;0.70;0.53;;;;;;;;;;10222714;29;20019;-73
2023/07/29 12:53:36;;;;;;;1.20;0.82;;;;;;;;;;10240726;28;20023;-74
2023/07/29 12:58:37;;;;;;;3.00;0.98;;;;;;;;;;10238969;28;20462;-76
2023/07/29 13:03:38;;;;;;;2.92;1.80;;;;;;;;;;10238107;28;20031;-73
2023/07/29 13:08:39;;;;;;;3.03;1.00;;;;;;;;;;10221717;29;20083;-76
2023/07/29 13:13:41;;;;;;;2.33;1.40;;;;;;;;;;10221138;28;20483;-81
2023/07/29 13:18:43;;;;;;;3.60;1.40;;;;;;;;;;10238542;29;20026;-80
2023/07/29 13:23:43;;;;;;;4.32;1.33;;;;;;;;;;10220887;28;20051;-74
2023/07/29 13:28:43;;;;;;;3.88;1.45;;;;;;;;;;10221528;28;20119;-73
2023/07/29 13:33:44;;;;;;;2.30;1.25;;;;;;;;;;10237834;28;20023;-77
2023/07/29 13:38:44;;;;;;;1.25;0.90;;;;;;;;;;10219580;28;20027;-76
2023/07/29 13:43:44;;;;;;;1.67;1.40;;;;;;;;;;10220184;29;20031;-82
2023/07/29 13:48:44;;;;;;;4.88;1.70;;;;;;;;;;10239644;28;20151;-80
2023/07/29 13:53:45;;;;;;;2.50;1.38;;;;;;;;;;10220386;28;20062;-80
2023/07/29 13:58:45;;;;;;;3.55;1.17;;;;;;;;;;10219603;28;20016;-73
2023/07/29 14:03:45;;;;;;;1.40;1.10;;;;;;;;;;10220466;29;20059;-78
2023/07/29 14:08:46;;;;;;;1.65;1.23;;;;;;;;;;10225518;28;20076;-78
2023/07/29 14:13:46;;;;;;;2.73;2.10;;;;;;;;;;10223315;28;20011;-73
2023/07/29 14:18:46;;;;;;;2.53;1.70;;;;;;;;;;10224818;28;20414;-74
2023/07/29 14:23:46;;;;;;;4.40;1.70;;;;;;;;;;10211574;28;20024;-79
2023/07/29 14:28:46;;;;;;;2.33;1.67;;;;;;;;;;10220898;29;20027;-82
2023/07/29 14:33:47;;;;;;;11.70;7.63;;;;;;;;;;10230055;28;20590;-73
2023/07/29 14:38:47;;;;;;;3.95;2.53;;;;;;;;;;10201212;28;20522;-76
2023/07/29 14:43:47;;;;;;;2.15;1.65;;;;;;;;;;10228494;28;20496;-78
2023/07/29 14:48:48;;;;;;;2.22;1.42;;;;;;;;;;10235303;28;20567;-77
2023/07/29 14:53:48;;;;;;;1.50;1.30;;;;;;;;;;10233198;28;20023;-75
2023/07/29 14:58:50;;;;;;;1.70;1.17;;;;;;;;;;10204524;29;20267;-74
2023/07/29 15:03:50;;;;;;;2.97;1.80;;;;;;;;;;10212023;28;20528;-74
2023/07/29 15:08:50;;;;;;;2.00;1.30;;;;;;;;;;10210193;28;20059;-79
2023/07/29 15:13:51;;;;;;;3.78;1.95;;;;;;;;;;10211320;28;20027;-83
2023/07/29 15:18:52;;;;;;;2.50;0.90;;;;;;;;;;10210843;29;20107;-77
2023/07/29 15:23:52;;;;;;;2.97;1.33;;;;;;;;;;10231498;28;20023;-77
2023/07/29 15:28:52;;;;;;;2.03;1.27;;;;;;;;;;10209802;29;20031;-80
2023/07/29 15:33:52;;;;;;;2.15;1.55;;;;;;;;;;10213828;29;20037;-75
2023/07/29 15:38:53;;;;;;;2.10;1.30;;;;;;;;;;10219494;29;20027;-76
2023/07/29 15:43:54;;;;;;;4.82;1.00;;;;;;;;;;10202963;29;20034;-81
2023/07/29 15:48:59;;;;;;;2.03;1.23;;;;;;;;;;10230592;28;20589;-78
2023/07/29 15:53:59;;;;;;;1.95;1.48;;;;;;;;;;10213156;28;20046;-74
2023/07/29 15:58:59;;;;;;;2.40;1.15;;;;;;;;;;10232511;28;20038;-78
2023/07/29 16:03:59;;;;;;;6.15;1.70;;;;;;;;;;10207894;28;20048;-74
2023/07/29 16:09:05;;;;;;;1.63;1.38;;;;;;;;;;10199051;29;20592;-77
2023/07/29 16:14:06;;;;;;;2.83;1.33;;;;;;;;;;10224651;28;20027;-78
2023/07/29 16:19:06;;;;;;;2.47;1.50;;;;;;;;;;10226768;29;20023;-79
2023/07/29 16:24:06;;;;;;;2.13;1.67;;;;;;;;;;10219029;28;20036;-73
2023/07/29 16:29:07;;;;;;;2.43;1.40;;;;;;;;;;10225627;28;20056;-74
2023/07/29 16:34:07;;;;;;;4.18;1.63;;;;;;;;;;10207578;28;20609;-74
2023/07/29 16:39:08;;;;;;;3.57;1.43;;;;;;;;;;10204976;28;20063;-75
2023/07/29 16:44:08;;;;;;;3.00;1.50;;;;;;;;;;10231737;28;20121;-73
2023/07/29 16:49:08;;;;;;;2.75;1.35;;;;;;;;;;10210052;29;20023;-78
2023/07/29 16:54:09;;;;;;;5.55;1.30;;;;;;;;;;10199711;29;20032;-74
2023/07/29 16:59:09;;;;;;;3.50;1.75;;;;;;;;;;10217931;29;20034;-75
2023/07/29 17:04:09;;;;;;;2.33;1.48;;;;;;;;;;10199222;29;20034;-75
2023/07/29 17:09:09;;;;;;;7.60;2.00;;;;;;;;;;10215044;29;20042;-75
2023/07/29 17:14:10;;;;;;;2.40;1.48;;;;;;;;;;10205136;29;20038;-74
2023/07/29 17:19:10;;;;;;;7.10;1.63;;;;;;;;;;10208184;28;20051;-79
2023/07/29 17:24:11;;;;;;;5.53;1.45;;;;;;;;;;10214777;29;20105;-79
2023/07/29 17:29:11;;;;;;;4.28;1.30;;;;;;;;;;10226136;28;20019;-79
2023/07/29 17:34:12;;;;;;;3.47;1.97;;;;;;;;;;10207953;28;20023;-79
2023/07/29 17:39:12;;;;;;;7.00;1.83;;;;;;;;;;10236287;28;20646;-77
2023/07/29 17:44:12;;;;;;;3.33;1.98;;;;;;;;;;10210312;28;20492;-73
2023/07/29 17:49:12;;;;;;;5.50;2.35;;;;;;;;;;10201157;29;20086;-77
2023/07/29 17:54:13;;;;;;;2.58;1.60;;;;;;;;;;10214353;29;20039;-76
2023/07/29 17:59:13;;;;;;;2.42;1.88;;;;;;;;;;10217337;29;20550;-78
2023/07/29 18:04:13;;;;;;;3.22;1.60;;;;;;;;;;10192468;29;20734;-74
2023/07/29 18:09:14;;;;;;;3.97;2.72;;;;;;;;;;10172900;29;20512;-79
2023/07/29 18:14:15;;;;;;;5.05;2.45;;;;;;;;;;10185610;29;20027;-80
2023/07/29 18:19:21;;;;;;;7.93;2.80;;;;;;;;;;10185997;29;20052;-78
2023/07/29 18:24:21;;;;;;;6.82;2.88;;;;;;;;;;10194321;29;20043;-74
2023/07/29 18:29:21;;;;;;;4.65;3.00;;;;;;;;;;10188586;29;20038;-74
2023/07/29 18:34:22;;;;;;;4.43;2.70;;;;;;;;;;10196201;29;20028;-78
2023/07/29 18:39:23;;;;;;;5.72;2.88;;;;;;;;;;10198905;29;20020;-75
2023/07/29 18:44:23;;;;;;;7.20;3.20;;;;;;;;;;10188398;29;20031;-74
2023/07/29 18:49:23;;;;;;;4.13;2.60;;;;;;;;;;10202950;29;20283;-82
2023/07/29 18:54:24;;;;;;;8.15;3.72;;;;;;;;;;10199965;29;20020;-74
2023/07/29 18:59:24;;;;;;;8.18;3.30;;;;;;;;;;10185473;29;20024;-81
2023/07/29 19:04:24;;;;;;;5.72;2.97;;;;;;;;;;10179855;29;20035;-74
2023/07/29 19:09:26;;;;;;;4.40;2.63;;;;;;;;;;10187860;29;20424;-74
2023/07/29 19:14:26;;;;;;;4.05;2.35;;;;;;;;;;10202337;29;20428;-74
2023/07/29 19:19:27;;;;;;;6.50;2.95;;;;;;;;;;10190124;29;20039;-74
2023/07/29 19:24:27;;;;;;;6.07;2.55;;;;;;;;;;10186640;29;20114;-78
2023/07/29 19:29:27;;;;;;;13.63;2.90;;;;;;;;;;10187809;29;20027;-75
2023/07/29 19:34:28;;;;;;;3.92;2.80;;;;;;;;;;10194189;29;20443;-74
2023/07/29 19:39:29;;;;;;;5.28;2.42;;;;;;;;;;10186001;29;20032;-79
2023/07/29 19:44:33;;;;;;;4.75;2.40;;;;;;;;;;10215919;29;20112;-76
2023/07/29 19:49:33;;;;;;;6.10;2.35;;;;;;;;;;10188777;29;20048;-74
2023/07/29 19:54:33;;;;;;;9.68;2.72;;;;;;;;;;10200390;29;20024;-74
2023/07/29 19:59:33;;;;;;;5.80;4.60;;;;;;;;;;10179868;29;20043;-75
2023/07/29 20:04:34;;;;;;;4.72;2.88;;;;;;;;;;10189598;29;20143;-74
2023/07/29 20:09:34;;;;;;;4.85;2.85;;;;;;;;;;10188574;29;20500;-74
2023/07/29 20:14:34;;;;;;;4.88;2.67;;;;;;;;;;10201563;29;20038;-76
2023/07/29 20:19:35;;;;;;;4.03;2.67;;;;;;;;;;10202507;29;20157;-76
2023/07/29 20:24:35;;;;;;;3.10;2.33;;;;;;;;;;10186460;29;20131;-81
2023/07/29 20:29:35;;;;;;;2.42;1.80;;;;;;;;;;10180188;29;20032;-82
2023/07/29 20:34:35;;;;;;;4.70;3.43;;;;;;;;;;10202094;28;20055;-74
2023/07/29 20:39:36;;;;;;;5.43;1.80;;;;;;;;;;10187039;29;20024;-75
2023/07/29 20:44:38;;;;;;;3.63;2.10;;;;;;;;;;10193870;29;20035;-78
2023/07/29 20:49:38;;;;;;;2.95;2.08;;;;;;;;;;10186900;29;20027;-75
2023/07/29 20:54:38;;;;;;;4.33;1.90;;;;;;;;;;10185724;29;20027;-78
2023/07/29 20:59:39;;;;;;;2.23;1.93;;;;;;;;;;10186531;29;20048;-75
2023/07/29 21:04:39;;;;;;;2.90;2.20;;;;;;;;;;10181429;29;20425;-75
2023/07/29 21:09:39;;;;;;;3.05;2.47;;;;;;;;;;10173129;29;20462;-75
2023/07/29 21:14:39;;;;;;;2.40;2.10;;;;;;;;;;10182527;29;20083;-75
2023/07/29 21:19:40;;;;;;;3.88;1.98;;;;;;;;;;10174550;29;20032;-74
2023/07/29 21:24:40;;;;;;;7.32;2.72;;;;;;;;;;10176258;29;20036;-73
2023/07/29 21:29:41;;;;;;;4.80;2.15;;;;;;;;;;10181548;29;20040;-74
2023/07/29 21:34:41;;;;;;;3.13;2.30;;;;;;;;;;10183312;29;20020;-74
2023/07/29 21:39:41;;;;;;;2.47;1.80;;;;;;;;;;10175858;29;20019;-75
2023/07/29 21:44:42;;;;;;;4.57;2.10;;;;;;;;;;10184539;29;20046;-76
2023/07/29 21:49:42;;;;;;;4.07;2.23;;;;;;;;;;10195129;29;20407;-76
2023/07/29 21:54:42;;;;;;;5.32;2.55;;;;;;;;;;10198221;29;20070;-80
2023/07/29 21:59:44;;;;;;;8.43;2.80;;;;;;;;;;10186024;29;20474;-76
2023/07/29 22:04:45;;;;;;;2.63;1.90;;;;;;;;;;10188166;29;20036;-77
2023/07/29 22:09:45;;;;;;;2.35;1.65;;;;;;;;;;10178882;29;20432;-78
2023/07/29 22:14:46;;;;;;;2.33;1.90;;;;;;;;;;10189936;29;20028;-77
2023/07/29 22:19:47;;;;;;;4.22;1.90;;;;;;;;;;10184428;29;20023;-78
2023/07/29 22:24:51;;;;;;;2.58;1.92;;;;;;;;;;10183204;29;20043;-76
2023/07/29 22:29:51;;;;;;;2.40;1.80;;;;;;;;;;10207357;29;20024;-74
2023/07/29 22:34:51;;;;;;;2.85;2.10;;;;;;;;;;10175434;29;20024;-78
2023/07/29 22:39:52;;;;;;;6.00;2.10;;;;;;;;;;10196178;29;20027;-77
2023/07/29 22:44:53;;;;;;;2.53;2.00;;;;;;;;;;10184800;29;20397;-81
2023/07/29 22:49:53;;;;;;;4.90;2.30;;;;;;;;;;10182424;29;20032;-80
2023/07/29 22:54:53;;;;;;;3.95;2.08;;;;;;;;;;10186814;29;20024;-76
2023/07/29 22:59:53;;;;;;;3.83;2.28;;;;;;;;;;10200484;29;20024;-77
2023/07/29 23:04:54;;;;;;;3.35;2.58;;;;;;;;;;10191839;29;20047;-73
2023/07/29 23:09:54;;;;;;;2.10;1.90;;;;;;;;;;10166329;29;20059;-74
2023/07/29 23:14:54;;;;;;;3.25;2.25;;;;;;;;;;10183264;29;20098;-74
2023/07/29 23:19:54;;;;;;;2.60;2.23;;;;;;;;;;10190775;29;20682;-78
2023/07/29 23:24:55;;;;;;;6.07;2.10;;;;;;;;;;10178812;29;20024;-80
2023/07/29 23:29:58;;;;;;;5.30;2.42;;;;;;;;;;10204122;29;20031;-77
2023/07/29 23:34:59;;;;;;;3.97;1.98;;;;;;;;;;10195233;29;20450;-80
2023/07/29 23:39:59;;;;;;;3.83;2.45;;;;;;;;;;10187631;29;20027;-78
2023/07/29 23:44:59;;;;;;;4.13;1.90;;;;;;;;;;10187577;29;20036;-78
2023/07/29 23:50:01;;;;;;;6.03;2.50;;;;;;;;;;10202912;29;20408;-80
2023/07/29 23:55:02;;;;;;;2.83;2.13;;;;;;;;;;10198943;29;20024;-80
